首页
METAR-TAF:

METAR-TAF

机场 :

博博迪乌拉索, 布吉納法索

博博迪烏拉索機場

纬度: 11-10N, 经度: 004-19W, 海拔: 460米

当前天气观测

该预报发布于7小时和35分钟前的07:00 UTC
风速10节,风向西南
温度 28°C
湿度 66%
气压 1011 hPa
能见度10公里或以上
1500米以下无云,无积雨云

METAR: DFOO 220700Z 22010KT CAVOK 28/21 Q1011

时间: 14:35 (14:35 UTC)

预报

该预报发布于9小时和35分钟前的05:00 UTC
预报有效从22日的 06点(UTC)到 23日的 06点(UTC)
风速8节,风向西南
能见度10公里或以上
少量云层高于2000英尺
短暂存在
从 22日的 16点(UTC)到 22日的 24点(UTC)
少量云层高于2000英尺
少量云层高于3600英尺, 积雨云.
雷暴

TAF: DFOO 220500Z 2206/2306 22008KT 9999 FEW020 TEMPO 2216/2224 TS FEW020 FEW036CB

超过4000个机场的气象观测和天气预报(METAR&TAF报告)。

可查询的气象台以黄色和红色小点在地图上表示。

将鼠标移到小点上方,可查看气象台名称。

然后点击查看天气观测和预报。

如需切换地图:点击带黑十字的绿色按钮放大地图;点击带横线的绿色按钮缩小地图;或者点击绿色箭头查看邻近地区的地图。


METAR-TAF: